Analomink, Pennsylvania
Current Conditions -  °F | °C
As of 12:53 AM on Thursday 29 Jan 2015 (Local Time) from KMPO Reporting Station
Clear Clear  
Wind Chill: -3°   Ceiling: Unl
Heat Index: 12°   Visibility: 10mi
Dew Point:   Wind: 13mph
Humidity: 67%   Direction: 340°NNW
Pressure: 30.17"   Gusts: NA
Location:  41.05°N, 75.22°W
Report Text: KMPO 290553Z AUTO 34011KT 10SM CLR M11/M16 A3017 RMK AO2 SLP252 T11111161 11072 21111 50001
Loading
Personal Weather Stations






























Interactive Weather Map New forecast layout! Learn more

10-Day Weather Forecast

Advertisements
Track Severe Weather on mobile